Main page
METAR-TAF:

METAR-TAF

Airports :

Dibrugarh Airport

Dibrugarh, India

latitude: 27-29N, longitude: 095-01E, elevation: 110 m

Current weather observation

The report was made 10 hours and 33 minutes ago, at 11:00 UTC
Calm wind
Temperature 24°C
Humidity 69%
Pressure 1011 hPa
Visibility: 5000 m
Few clouds at a height of 2000 ft
Scattered clouds at a height of 10000 ft
haze

METAR: VEMN 011100Z 00000KT 5000 HZ FEW020 SCT100 24/18 Q1011 BECMG 3000 BR

Time: 03:03 (21:33 UTC)

Forecast

The report was made 1 hour and 33 minutes ago, at 20:00 UTC
Forecast valid from 01 at 21 UTC to 02 at 06 UTC
Wind kt from the North
Visibility: 2500 m
Few clouds at a height of 2000 ft
Scattered clouds at a height of 10000 ft
mist
Becoming
from 02 at 04 UTC to 02 at 06 UTC
Wind 5 kt from the Northeast
Visibility: 5000 m
Few clouds at a height of 10000 ft
haze

TAF: VEMN 012000Z 0121/0206 00000KT 2500 BR FEW020 SCT100 BECMG 0204/0206 04005KT 5000 HZ FEW100

Weather observations and forecasts of more than 4000 airports (METAR and TAF reports).

The available stations are represented by yellow and red dots on the map.

Hover mouse over dot to see the name of the station.

Then click to see weather observations and forecasts.

To change the map : click on the green buttons with a black cross to zoom in, on the green button with a dash to zoom out, or on the green arrows for adjacent maps.


METAR-TAF: